Time;durP1;ratioP1;P1;durP2;ratioP2;P2;SDS_P1;SDS_P2;PMS_P1;PMS_P2;Temp;Humidity;BMP_temperature;BMP_pressure;BME280_temperature;BME280_humidity;BME280_pressure;Samples;Min_cycle;Max_cycle;Signal;HPM_P1;HPM_P2
2022/12/02 00:02:17;;;;;;;20.33;13.17;;;;;;;18.92;41.99;102476.84;4991969;28;20020;-68
2022/12/02 00:04:42;;;;;;;20.83;13.45;;;;;;;18.92;42.03;102479.47;4991863;28;20529;-67
2022/12/02 00:07:17;;;;;;;18.13;12.48;;;;;;;18.84;42.09;102477.28;4991840;28;20034;-68
2022/12/02 00:09:43;;;;;;;19.65;13.13;;;;;;;18.88;42.03;102481.44;4990942;28;20153;-69
2022/12/02 00:12:22;;;;;;;20.38;13.57;;;;;;;18.85;42.00;102481.66;4991268;28;20128;-68
2022/12/02 00:15:00;;;;;;;19.02;13.45;;;;;;;18.81;42.04;102472.16;4991056;28;20117;-66
2022/12/02 00:17:26;;;;;;;20.63;14.10;;;;;;;18.81;41.90;102475.63;4991566;28;20034;-67
2022/12/02 00:19:52;;;;;;;21.30;13.48;;;;;;;18.82;41.84;102480.00;4991347;28;20073;-69
2022/12/02 00:22:18;;;;;;;21.13;13.70;;;;;;;18.81;42.11;102475.63;4991035;28;20061;-67
2022/12/02 00:24:43;;;;;;;20.55;13.98;;;;;;;18.78;41.91;102467.88;4991430;28;20124;-66
2022/12/02 00:27:09;;;;;;;20.25;14.02;;;;;;;18.80;41.84;102481.88;4990940;28;20573;-68
2022/12/02 00:29:34;;;;;;;20.48;14.18;;;;;;;18.76;41.91;102471.56;4991591;28;20513;-67
2022/12/02 00:32:00;;;;;;;19.63;13.75;;;;;;;18.76;41.96;102471.56;4991257;28;20050;-68
2022/12/02 00:34:25;;;;;;;18.90;13.60;;;;;;;18.74;41.97;102469.03;4998775;28;20120;-69
2022/12/02 00:36:50;;;;;;;20.85;14.45;;;;;;;18.73;41.67;102455.91;5020086;28;20537;-68
2022/12/02 00:39:15;;;;;;;19.90;13.93;;;;;;;18.71;41.78;102456.00;5022218;28;20042;-66
2022/12/02 00:41:41;;;;;;;20.00;14.27;;;;;;;18.73;41.92;102456.75;5021835;28;20286;-66
2022/12/02 00:46:50;;;;;;;18.67;13.30;;;;;;;18.68;41.46;102446.44;5030771;28;20398;-68
2022/12/02 00:49:16;;;;;;;20.20;14.10;;;;;;;18.70;41.61;102450.81;5027102;28;20030;-69
2022/12/02 00:51:43;;;;;;;18.88;13.00;;;;;;;18.69;41.70;102460.50;5024409;28;20061;-69
2022/12/02 00:54:09;;;;;;;18.55;14.10;;;;;;;18.68;41.62;102451.72;5027075;28;20105;-69
2022/12/02 00:56:35;;;;;;;20.13;13.98;;;;;;;18.65;41.43;102448.44;5038490;28;20465;-68
2022/12/02 00:59:01;;;;;;;20.05;13.38;;;;;;;18.57;41.36;102432.19;5035752;28;20029;-67
2022/12/02 01:01:27;;;;;;;18.23;12.45;;;;;;;18.62;41.39;102443.31;5039608;28;20083;-68
2022/12/02 01:03:53;;;;;;;20.40;14.45;;;;;;;18.64;41.49;102446.72;5025338;28;20119;-69
2022/12/02 01:06:18;;;;;;;20.13;13.57;;;;;;;18.62;41.40;102448.59;5024231;28;20080;-68
2022/12/02 01:08:43;;;;;;;19.92;14.00;;;;;;;18.61;41.31;102436.34;5041658;28;20041;-68
2022/12/02 01:11:09;;;;;;;19.95;14.13;;;;;;;18.59;41.27;102435.56;5044388;28;20072;-67
2022/12/02 01:13:34;;;;;;;20.85;14.43;;;;;;;18.58;41.31;102440.03;5042689;28;20040;-68
2022/12/02 01:16:00;;;;;;;20.02;14.20;;;;;;;18.58;41.12;102440.03;5043173;28;20037;-69
2022/12/02 01:18:26;;;;;;;20.77;14.13;;;;;;;18.59;41.47;102446.13;5031545;28;20033;-69
2022/12/02 01:20:51;;;;;;;21.15;13.82;;;;;;;18.56;41.21;102441.88;5041047;28;20043;-69
2022/12/02 01:23:17;;;;;;;18.10;13.00;;;;;;;18.58;41.04;102442.66;5029209;28;20025;-67
2022/12/02 01:25:42;;;;;;;19.83;13.63;;;;;;;18.58;41.39;102441.78;5032911;28;20033;-67
2022/12/02 01:28:07;;;;;;;18.30;13.07;;;;;;;18.54;41.30;102437.63;5025309;28;20080;-68
2022/12/02 01:30:33;;;;;;;19.33;13.90;;;;;;;18.56;41.19;102436.59;5031651;28;20033;-68
2022/12/02 01:32:58;;;;;;;19.20;13.70;;;;;;;18.52;41.35;102437.72;5030512;28;20029;-67
2022/12/02 01:35:23;;;;;;;19.45;13.82;;;;;;;18.54;41.12;102437.63;5036828;28;20839;-67
2022/12/02 01:37:49;;;;;;;18.80;14.35;;;;;;;18.55;41.21;102441.97;5026678;28;20033;-67
2022/12/02 01:40:17;;;;;;;20.35;14.15;;;;;;;18.54;41.38;102438.47;5022224;28;20041;-67
2022/12/02 01:42:44;;;;;;;18.80;13.35;;;;;;;18.53;41.04;102441.22;5026896;28;20517;-67
2022/12/02 01:45:11;;;;;;;18.80;13.05;;;;;;;18.52;41.20;102442.13;5027771;28;20060;-66
2022/12/02 01:47:37;;;;;;;20.00;14.40;;;;;;;18.52;41.06;102437.72;5031808;28;20545;-68
2022/12/02 01:50:05;;;;;;;17.65;13.02;;;;;;;18.51;41.09;102443.09;5026620;28;20057;-68
2022/12/02 01:52:30;;;;;;;19.48;13.68;;;;;;;18.49;40.88;102437.91;5031485;28;20037;-67
2022/12/02 01:54:55;;;;;;;20.15;13.80;;;;;;;18.49;41.05;102444.03;5022794;28;20488;-67
2022/12/02 01:57:25;;;;;;;18.55;12.88;;;;;;;18.49;41.04;102441.38;5022662;28;20033;-66
2022/12/02 01:59:51;;;;;;;18.95;13.90;;;;;;;18.47;40.92;102430.06;5023077;28;20064;-67
2022/12/02 02:02:36;;;;;;;18.33;13.02;;;;;;;18.46;40.94;102433.63;5033453;28;20116;-69
2022/12/02 02:05:07;;;;;;;20.17;14.48;;;;;;;18.47;41.02;102432.72;5029132;28;20440;-68
2022/12/02 02:07:35;;;;;;;20.15;13.57;;;;;;;18.47;41.17;102431.88;5022762;28;20034;-68
2022/12/02 02:10:00;;;;;;;20.73;14.35;;;;;;;18.43;40.94;102431.19;5027096;28;20500;-68
2022/12/02 02:12:25;;;;;;;18.10;13.27;;;;;;;18.46;40.94;102432.81;5027257;28;20037;-67
2022/12/02 02:14:51;;;;;;;19.80;13.77;;;;;;;18.45;41.05;102428.44;5041347;28;20083;-67
2022/12/02 02:17:17;;;;;;;19.48;12.98;;;;;;;18.43;40.52;102431.19;5037008;28;20025;-68
2022/12/02 02:19:43;;;;;;;20.15;14.45;;;;;;;18.43;40.87;102435.63;5035508;28;20036;-66
2022/12/02 02:22:20;;;;;;;19.63;13.55;;;;;;;18.40;40.84;102427.88;5022733;28;20038;-68
2022/12/02 02:24:46;;;;;;;18.63;13.68;;;;;;;18.41;41.01;102438.34;5029686;28;20051;-67
2022/12/02 02:27:11;;;;;;;18.48;13.52;;;;;;;18.40;41.09;102426.06;5022794;28;20033;-68
2022/12/02 02:29:37;;;;;;;17.02;12.10;;;;;;;18.39;40.76;102434.94;5032426;28;20033;-67
2022/12/02 02:32:02;;;;;;;19.27;13.82;;;;;;;18.37;40.91;102426.25;5033345;28;20155;-67
2022/12/02 02:34:28;;;;;;;17.73;13.05;;;;;;;18.36;40.57;102419.28;5030582;28;20187;-67
2022/12/02 02:36:53;;;;;;;17.83;12.65;;;;;;;18.37;40.99;102420.97;5034908;28;20026;-67
2022/12/02 02:39:19;;;;;;;18.88;13.18;;;;;;;18.36;40.87;102424.56;5025102;28;20029;-69
2022/12/02 02:41:45;;;;;;;18.70;12.90;;;;;;;18.36;40.64;102421.06;5030368;28;20055;-68
2022/12/02 02:44:10;;;;;;;17.77;13.15;;;;;;;18.36;40.79;102421.94;5029316;28;20529;-69
2022/12/02 02:46:36;;;;;;;17.60;13.18;;;;;;;18.35;40.82;102416.72;5030331;28;20037;-68
2022/12/02 02:49:02;;;;;;;19.90;13.00;;;;;;;18.33;40.60;102411.53;5027747;28;20067;-69
2022/12/02 02:51:27;;;;;;;19.80;14.35;;;;;;;18.30;40.53;102404.63;5029335;28;20410;-66
2022/12/02 02:53:53;;;;;;;17.80;12.80;;;;;;;18.32;40.94;102415.09;5031161;28;20037;-68
2022/12/02 02:56:18;;;;;;;18.08;13.00;;;;;;;18.31;40.47;102409.00;5031621;28;20029;-69
2022/12/02 02:58:43;;;;;;;17.70;13.63;;;;;;;18.28;40.46;102401.25;5029444;28;20025;-69
2022/12/02 03:01:15;;;;;;;18.10;13.13;;;;;;;18.32;40.60;102407.19;5025319;28;20161;-68
2022/12/02 03:03:44;;;;;;;18.65;12.52;;;;;;;18.27;40.76;102399.53;5030862;28;20432;-68
2022/12/02 03:06:11;;;;;;;18.60;13.27;;;;;;;18.31;40.83;102405.50;5031319;28;20029;-68
2022/12/02 03:08:40;;;;;;;17.23;12.75;;;;;;;18.30;40.45;102407.28;5031521;28;20041;-69
2022/12/02 03:11:06;;;;;;;17.42;12.65;;;;;;;18.29;40.32;102397.69;5029575;28;20033;-68
2022/12/02 03:13:35;;;;;;;19.75;12.98;;;;;;;18.30;40.53;102398.53;5031185;28;20473;-69
2022/12/02 03:16:03;;;;;;;18.38;13.38;;;;;;;18.26;40.35;102389.06;5031461;28;20380;-69
2022/12/02 03:18:29;;;;;;;16.98;12.80;;;;;;;18.26;40.48;102383.78;5029825;28;20950;-68
2022/12/02 03:20:55;;;;;;;18.85;12.88;;;;;;;18.25;40.68;102390.03;5031548;28;20100;-69
2022/12/02 03:23:21;;;;;;;19.05;13.15;;;;;;;18.27;40.38;102388.97;5032959;28;20037;-69
2022/12/02 03:25:46;;;;;;;18.73;12.90;;;;;;;18.25;40.15;102384.75;5030710;28;20044;-69
2022/12/02 03:28:12;;;;;;;17.25;13.15;;;;;;;18.23;40.42;102376.03;5032108;28;20029;-68
2022/12/02 03:30:38;;;;;;;16.83;12.18;;;;;;;18.23;40.24;102382.19;5029288;28;20033;-70
2022/12/02 03:33:03;;;;;;;17.92;12.82;;;;;;;18.16;40.25;102378.19;5027947;28;20044;-67
2022/12/02 03:35:28;;;;;;;18.02;12.35;;;;;;;18.22;40.15;102398.97;5029478;28;20056;-67
2022/12/02 03:37:54;;;;;;;18.50;12.35;;;;;;;18.23;40.10;102398.03;5033421;28;20074;-69
2022/12/02 03:40:19;;;;;;;17.05;12.35;;;;;;;18.20;40.20;102390.28;5022967;28;20037;-69
2022/12/02 03:42:45;;;;;;;17.55;12.75;;;;;;;18.21;40.27;102391.97;5026354;28;20041;-68
2022/12/02 03:45:11;;;;;;;17.05;11.95;;;;;;;18.19;40.09;102385.09;5024741;28;20319;-69
2022/12/02 03:47:37;;;;;;;16.52;11.63;;;;;;;18.19;40.31;102378.00;5029717;28;20029;-66
2022/12/02 03:50:02;;;;;;;16.73;11.80;;;;;;;18.22;40.18;102379.63;5027277;28;20495;-66
2022/12/02 03:52:28;;;;;;;18.67;13.18;;;;;;;18.20;40.35;102373.56;5028923;28;20539;-68
2022/12/02 03:54:54;;;;;;;15.50;11.55;;;;;;;18.21;40.17;102383.22;5028647;28;20064;-67
2022/12/02 03:57:19;;;;;;;16.67;12.32;;;;;;;18.16;40.19;102375.56;5029856;28;20079;-69
2022/12/02 03:59:44;;;;;;;17.45;12.57;;;;;;;18.18;40.21;102373.66;5028865;28;20091;-69
2022/12/02 04:02:10;;;;;;;17.23;11.65;;;;;;;18.20;40.35;102360.38;5028021;28;20560;-68
2022/12/02 04:04:35;;;;;;;16.63;11.83;;;;;;;18.18;40.23;102363.13;5030620;28;20086;-68
2022/12/02 04:07:00;;;;;;;17.40;12.00;;;;;;;18.18;40.02;102367.56;5028549;28;20263;-67
2022/12/02 04:09:26;;;;;;;17.95;12.25;;;;;;;18.13;39.70;102358.13;5029601;28;20060;-67
2022/12/02 04:11:51;;;;;;;15.75;11.18;;;;;;;18.15;39.62;102365.97;5033411;28;20132;-67
2022/12/02 04:14:16;;;;;;;15.63;11.77;;;;;;;18.18;39.92;102367.56;5030149;28;20033;-68
2022/12/02 04:16:41;;;;;;;16.43;12.07;;;;;;;18.16;39.99;102365.00;5031300;28;20269;-67
2022/12/02 04:19:06;;;;;;;16.70;11.60;;;;;;;18.16;39.51;102364.16;5033336;28;20294;-68
2022/12/02 04:21:32;;;;;;;16.00;11.63;;;;;;;18.16;39.88;102367.63;5027161;28;20805;-67
2022/12/02 04:23:57;;;;;;;16.92;11.88;;;;;;;18.12;39.43;102363.50;5029490;28;20324;-69
2022/12/02 04:26:23;;;;;;;15.60;12.07;;;;;;;18.15;39.84;102370.34;5038063;28;20489;-68
2022/12/02 04:28:48;;;;;;;16.40;11.75;;;;;;;18.13;39.38;102362.53;5033670;28;20457;-69
2022/12/02 04:31:13;;;;;;;19.00;12.23;;;;;;;18.13;39.63;102354.63;5030020;28;20065;-65
2022/12/02 04:33:39;;;;;;;17.42;11.43;;;;;;;18.11;39.59;102354.72;5041010;28;20069;-70
2022/12/02 04:36:04;;;;;;;16.27;11.68;;;;;;;18.10;39.80;102352.16;5035093;28;20132;-70
2022/12/02 04:38:30;;;;;;;16.98;11.27;;;;;;;18.04;39.58;102350.72;5026410;28;20441;-67
2022/12/02 04:40:55;;;;;;;15.57;11.53;;;;;;;18.11;39.74;102352.06;5026332;28;20029;-67
2022/12/02 04:43:20;;;;;;;16.88;11.45;;;;;;;18.07;39.61;102350.56;5015620;28;20333;-68
2022/12/02 04:45:46;;;;;;;15.15;10.57;;;;;;;18.07;39.62;102349.69;5028855;28;20460;-68
2022/12/02 04:48:11;;;;;;;16.83;12.07;;;;;;;18.08;39.73;102357.50;5032380;28;20044;-69
2022/12/02 04:50:36;;;;;;;17.75;11.88;;;;;;;18.05;39.74;102347.13;5032734;28;20030;-67
2022/12/02 04:53:02;;;;;;;17.85;11.90;;;;;;;18.06;39.62;102348.00;5032510;28;20037;-66
2022/12/02 04:55:27;;;;;;;16.95;11.45;;;;;;;18.08;39.41;102346.97;5028156;28;20049;-69
2022/12/02 04:57:52;;;;;;;15.98;10.93;;;;;;;18.04;39.69;102342.81;5029744;28;20072;-67
2022/12/02 05:00:18;;;;;;;15.85;11.02;;;;;;;18.05;39.96;102339.22;5028030;28;20037;-66
2022/12/02 05:02:43;;;;;;;16.15;10.73;;;;;;;18.03;39.33;102338.47;5037641;28;20038;-67
2022/12/02 05:05:09;;;;;;;14.85;10.38;;;;;;;18.02;39.64;102334.13;5032665;28;20536;-69
2022/12/02 05:07:34;;;;;;;14.85;10.93;;;;;;;18.00;39.56;102328.09;5029192;28;20048;-66
2022/12/02 05:10:00;;;;;;;15.05;11.07;;;;;;;18.04;39.42;102334.91;5028491;28;20064;-69
2022/12/02 05:12:25;;;;;;;14.95;10.48;;;;;;;18.04;39.74;102332.28;5022327;28;20033;-68
2022/12/02 05:14:51;;;;;;;14.20;9.70;;;;;;;18.01;39.45;102329.81;5023343;28;20036;-69
2022/12/02 05:17:16;;;;;;;13.27;9.68;;;;;;;18.03;39.36;102332.34;5032346;28;20055;-68
2022/12/02 05:19:42;;;;;;;16.23;10.60;;;;;;;18.03;39.63;102327.06;5030816;28;20136;-69
2022/12/02 05:22:08;;;;;;;17.38;11.35;;;;;;;17.99;39.38;102321.13;5027580;28;20044;-69
2022/12/02 05:24:33;;;;;;;15.70;10.60;;;;;;;17.95;39.34;102307.25;5029772;28;20036;-70
2022/12/02 05:26:58;;;;;;;15.67;11.00;;;;;;;17.99;39.04;102320.25;5039054;28;20043;-68
2022/12/02 05:29:24;;;;;;;14.75;10.45;;;;;;;18.00;39.33;102319.34;5043207;28;20293;-68
2022/12/02 05:31:49;;;;;;;15.38;10.15;;;;;;;18.01;39.03;102326.28;5040340;28;20067;-67
2022/12/02 05:34:14;;;;;;;16.20;10.18;;;;;;;17.98;39.11;102327.34;5030184;28;20441;-67
2022/12/02 05:36:39;;;;;;;14.17;10.03;;;;;;;17.99;39.24;102325.53;5030105;28;20072;-66
2022/12/02 05:39:05;;;;;;;15.10;9.73;;;;;;;17.96;39.35;102334.50;5035856;28;20735;-68
2022/12/02 05:41:30;;;;;;;15.80;10.73;;;;;;;17.99;39.31;102338.72;5031907;28;20029;-67
2022/12/02 05:43:58;;;;;;;14.63;9.80;;;;;;;17.97;39.27;102322.16;5034159;28;20277;-68
2022/12/02 05:46:24;;;;;;;14.43;10.02;;;;;;;17.98;39.40;102311.50;5024435;28;20091;-69
2022/12/02 05:48:49;;;;;;;13.73;9.43;;;;;;;17.95;39.48;102309.88;5026823;28;20032;-68
2022/12/02 05:51:17;;;;;;;14.25;9.52;;;;;;;17.92;39.33;102310.06;5032880;28;20255;-69
2022/12/02 05:53:44;;;;;;;14.70;9.90;;;;;;;17.94;39.58;102307.34;5024361;28;20344;-68
2022/12/02 05:56:13;;;;;;;15.13;9.30;;;;;;;17.98;39.55;102318.59;5024687;28;20579;-67
2022/12/02 05:58:39;;;;;;;13.27;8.77;;;;;;;17.98;39.72;102310.69;5029245;28;20036;-68
2022/12/02 06:01:27;;;;;;;12.25;8.40;;;;;;;17.99;39.85;102326.41;5031024;28;20028;-69
2022/12/02 06:03:52;;;;;;;11.90;8.50;;;;;;;18.02;40.03;102315.66;5016243;28;20030;-69
2022/12/02 06:06:24;;;;;;;11.88;7.97;;;;;;;18.05;40.11;102318.13;5027716;28;20389;-70
2022/12/02 06:08:49;;;;;;;11.15;7.65;;;;;;;18.11;40.12;102320.41;5027798;28;20504;-69
2022/12/02 06:11:33;;;;;;;11.32;8.05;;;;;;;18.16;39.90;102324.56;5032441;28;20120;-69
2022/12/02 06:14:02;;;;;;;12.10;7.53;;;;;;;18.21;39.58;102320.72;5027542;28;20041;-69
2022/12/02 06:16:30;;;;;;;10.95;7.32;;;;;;;18.27;39.72;102311.59;5032962;28;20474;-67
2022/12/02 06:18:57;;;;;;;11.48;7.53;;;;;;;18.32;39.88;102320.09;5035717;28;20056;-68
2022/12/02 06:21:23;;;;;;;10.75;7.13;;;;;;;18.38;39.81;102318.91;5031110;28;20127;-66
2022/12/02 06:23:51;;;;;;;11.27;7.43;;;;;;;18.40;39.44;102320.50;5029153;28;20125;-70
2022/12/02 06:26:19;;;;;;;11.02;7.30;;;;;;;18.42;39.71;102316.00;5028720;28;20040;-71
2022/12/02 06:28:47;;;;;;;11.38;7.28;;;;;;;18.45;39.63;102320.22;5023019;28;20026;-69
2022/12/02 06:31:20;;;;;;;11.18;7.53;;;;;;;18.44;39.54;102316.75;5014847;28;20405;-71
2022/12/02 06:33:48;;;;;;;10.80;7.50;;;;;;;18.47;39.34;102318.34;5027444;28;20033;-69
2022/12/02 06:36:22;;;;;;;10.20;7.30;;;;;;;18.47;39.44;102313.91;5031394;28;20063;-70
2022/12/02 06:38:58;;;;;;;10.40;7.18;;;;;;;18.48;39.41;102315.63;5015122;28;20072;-70
2022/12/02 06:41:29;;;;;;;12.38;7.80;;;;;;;18.51;39.44;102322.50;5030413;28;20037;-71
2022/12/02 06:46:44;;;;;;;10.48;6.82;;;;;;;18.55;39.70;102315.22;5022810;28;20044;-69
2022/12/02 06:49:15;;;;;;;9.77;6.53;;;;;;;18.57;39.35;102313.38;5030509;28;20037;-69
2022/12/02 06:51:41;;;;;;;10.20;6.50;;;;;;;18.58;39.36;102321.19;5011486;28;20132;-69
2022/12/02 06:54:18;;;;;;;11.15;7.53;;;;;;;18.61;39.60;102314.88;5009055;28;20117;-69
2022/12/02 06:56:43;;;;;;;10.30;6.60;;;;;;;18.61;39.18;102317.50;5023499;28;20037;-69
2022/12/02 06:59:11;;;;;;;9.82;6.55;;;;;;;18.62;39.32;102316.59;5022463;28;20033;-71
2022/12/02 07:01:40;;;;;;;9.02;6.25;;;;;;;18.63;39.11;102313.00;5024686;28;20033;-69
2022/12/02 07:04:08;;;;;;;10.40;6.28;;;;;;;18.66;39.26;102315.47;5022396;28;20025;-69
2022/12/02 07:06:51;;;;;;;9.73;5.90;;;;;;;18.66;39.31;102321.59;5028682;28;20052;-71
2022/12/02 07:09:42;;;;;;;9.60;6.03;;;;;;;18.70;39.23;102327.53;5028433;28;20068;-69
2022/12/02 07:12:13;;;;;;;9.85;6.80;;;;;;;18.69;39.17;102328.44;5013228;28;20055;-72
2022/12/02 07:15:09;;;;;;;9.02;5.93;;;;;;;18.69;38.99;102325.81;5025808;28;20072;-69
2022/12/02 07:17:37;;;;;;;10.40;6.03;;;;;;;18.71;38.92;102326.59;4996533;28;20139;-70
2022/12/02 07:20:05;;;;;;;9.85;5.93;;;;;;;18.74;39.26;102322.91;5022471;28;20971;-69
2022/12/02 07:22:34;;;;;;;9.75;6.25;;;;;;;18.74;38.96;102336.97;5020225;28;20033;-71
2022/12/02 07:25:06;;;;;;;9.93;6.45;;;;;;;18.75;39.38;102336.00;5022369;28;20099;-69
2022/12/02 07:27:33;;;;;;;9.07;6.13;;;;;;;18.76;39.35;102328.97;5025177;28;20033;-71
2022/12/02 07:30:00;;;;;;;9.35;6.13;;;;;;;18.76;39.27;102328.97;5033615;28;20069;-69
2022/12/02 07:32:25;;;;;;;9.57;6.25;;;;;;;18.74;39.33;102326.41;5024944;28;20045;-70
2022/12/02 07:34:51;;;;;;;10.43;6.05;;;;;;;18.74;38.93;102328.19;5021117;28;20045;-70
2022/12/02 07:37:16;;;;;;;10.13;6.00;;;;;;;18.73;38.92;102321.22;5020773;28;20148;-68
2022/12/02 07:39:41;;;;;;;8.98;5.97;;;;;;;18.78;39.06;102325.25;5021074;28;20037;-72
2022/12/02 07:42:07;;;;;;;10.27;6.30;;;;;;;18.77;39.17;102323.59;5025555;28;20060;-71
2022/12/02 07:44:32;;;;;;;9.60;6.13;;;;;;;18.76;39.09;102313.94;5035424;28;20028;-71
2022/12/02 07:46:57;;;;;;;7.68;5.18;;;;;;;18.75;39.20;102314.88;5027349;28;20044;-69
2022/12/02 07:49:23;;;;;;;8.85;6.00;;;;;;;18.77;39.10;102314.78;5025024;28;20025;-70
2022/12/02 07:51:48;;;;;;;9.90;5.53;;;;;;;18.78;39.04;102322.63;5025238;28;20033;-69
2022/12/02 07:54:14;;;;;;;8.77;5.63;;;;;;;18.77;39.19;102320.06;5023320;28;20033;-68
2022/12/02 07:56:39;;;;;;;10.45;6.30;;;;;;;18.78;39.11;102319.97;5022802;28;20037;-71
2022/12/02 07:59:04;;;;;;;8.80;5.50;;;;;;;18.78;38.97;102314.69;5024621;28;20052;-70
2022/12/02 08:01:29;;;;;;;9.57;5.72;;;;;;;18.78;38.72;102324.41;5020951;28;20033;-68
2022/12/02 08:03:55;;;;;;;8.65;5.50;;;;;;;18.81;39.02;102329.53;5020651;28;20541;-70
2022/12/02 08:06:20;;;;;;;9.20;5.90;;;;;;;18.76;39.31;102323.69;5023871;28;20029;-69
2022/12/02 08:08:45;;;;;;;8.77;5.40;;;;;;;18.78;39.10;102325.25;5020841;28;20270;-71
2022/12/02 08:11:11;;;;;;;8.82;5.63;;;;;;;18.77;39.03;102330.63;5017577;28;20064;-69
2022/12/02 08:13:36;;;;;;;9.57;5.40;;;;;;;18.78;39.18;102338.47;5022498;28;20103;-69
2022/12/02 08:16:01;;;;;;;9.95;5.72;;;;;;;18.77;39.54;102322.72;5019291;28;20289;-70
2022/12/02 08:18:27;;;;;;;9.82;6.10;;;;;;;18.76;39.55;102321.03;5020196;28;20037;-69
2022/12/02 08:20:52;;;;;;;9.37;5.33;;;;;;;18.79;39.94;102328.78;5027349;28;20499;-69
2022/12/02 08:23:17;;;;;;;9.60;5.43;;;;;;;18.82;40.11;102325.94;5026307;28;20312;-69
2022/12/02 08:25:42;;;;;;;8.95;5.35;;;;;;;18.82;40.29;102325.94;5019997;28;20913;-68
2022/12/02 08:28:08;;;;;;;9.43;5.80;;;;;;;18.84;40.11;102334.66;5026339;28;20124;-68
2022/12/02 08:30:33;;;;;;;8.95;5.15;;;;;;;18.81;40.19;102325.06;5025058;28;21201;-70
2022/12/02 08:32:58;;;;;;;8.50;5.15;;;;;;;18.82;40.45;102318.03;5019475;28;20033;-68
2022/12/02 08:35:24;;;;;;;9.40;5.13;;;;;;;18.85;40.57;102317.88;5020023;28;20056;-69
2022/12/02 08:37:49;;;;;;;8.45;4.85;;;;;;;18.84;40.64;102316.16;5020425;28;20706;-70
2022/12/02 08:40:14;;;;;;;9.65;5.82;;;;;;;18.84;40.53;102313.53;5031326;28;20462;-68
2022/12/02 08:42:41;;;;;;;11.25;5.70;;;;;;;18.83;40.58;102320.56;5019118;28;20033;-68
2022/12/02 08:45:07;;;;;;;9.10;5.57;;;;;;;18.88;40.43;102319.47;5034974;28;20044;-70
2022/12/02 08:47:32;;;;;;;7.80;5.22;;;;;;;18.88;40.22;102327.38;5020902;28;20025;-70
2022/12/02 08:49:57;;;;;;;11.27;5.32;;;;;;;18.85;40.36;102321.34;5020845;28;20084;-71
2022/12/02 08:52:22;;;;;;;10.50;5.77;;;;;;;18.85;40.42;102325.78;5025006;28;20034;-71
2022/12/02 08:54:48;;;;;;;11.48;5.38;;;;;;;18.87;40.50;102329.19;5026417;28;20333;-69
2022/12/02 08:57:13;;;;;;;9.82;5.70;;;;;;;18.84;40.40;102316.16;5020546;28;20104;-69
2022/12/02 08:59:39;;;;;;;8.57;5.88;;;;;;;18.83;40.59;102323.22;5020450;28;20029;-69
2022/12/02 09:02:04;;;;;;;10.02;5.90;;;;;;;18.83;40.40;102312.66;5025078;28;20116;-69
2022/12/02 09:04:29;;;;;;;9.57;5.30;;;;;;;18.83;40.52;102317.94;5026160;28;20041;-69
2022/12/02 09:06:54;;;;;;;8.55;5.07;;;;;;;18.83;40.56;102320.56;5023790;28;20837;-69
2022/12/02 09:09:20;;;;;;;11.32;5.82;;;;;;;18.85;40.76;102323.16;5026058;28;20055;-68
2022/12/02 09:11:45;;;;;;;9.70;5.90;;;;;;;18.84;40.49;102308.25;5025576;28;20967;-67
2022/12/02 09:14:10;;;;;;;9.27;5.35;;;;;;;18.83;40.45;102317.06;5023218;28;20029;-69
2022/12/02 09:16:36;;;;;;;9.68;5.50;;;;;;;18.82;40.56;102316.22;5026235;28;20444;-72
2022/12/02 09:19:01;;;;;;;9.27;5.13;;;;;;;18.85;40.67;102324.00;5033002;28;20112;-69
2022/12/02 09:21:26;;;;;;;8.40;5.40;;;;;;;18.90;40.98;102333.41;5030297;28;20298;-71
2022/12/02 09:23:51;;;;;;;9.70;5.47;;;;;;;18.90;40.90;102328.13;5027812;28;20029;-69
2022/12/02 09:26:17;;;;;;;8.73;5.03;;;;;;;18.81;40.92;102313.69;5026787;28;20353;-70
2022/12/02 09:28:42;;;;;;;9.65;5.45;;;;;;;18.88;40.54;102322.94;5026884;28;20025;-70
2022/12/02 09:31:08;;;;;;;13.30;5.75;;;;;;;18.90;40.50;102322.84;5022873;28;20026;-70
2022/12/02 09:33:33;;;;;;;12.15;5.55;;;;;;;18.87;40.70;102315.09;5027694;28;20040;-73
2022/12/02 09:35:58;;;;;;;11.27;5.63;;;;;;;18.87;40.71;102315.09;5035763;28;20489;-72
2022/12/02 09:38:23;;;;;;;8.63;5.17;;;;;;;18.87;40.54;102323.91;5025948;28;20037;-68
2022/12/02 09:40:49;;;;;;;9.70;5.30;;;;;;;18.84;40.67;102319.63;5030180;28;20270;-67
2022/12/02 09:43:14;;;;;;;8.65;5.07;;;;;;;18.76;40.62;102302.53;5028787;28;20080;-70
2022/12/02 09:45:40;;;;;;;10.85;5.30;;;;;;;18.79;40.81;102303.19;5022649;28;20038;-71
2022/12/02 09:48:11;;;;;;;9.05;5.00;;;;;;;18.80;40.59;102301.41;5019136;28;20077;-70
2022/12/02 09:50:38;;;;;;;9.35;5.53;;;;;;;18.79;40.65;102305.00;5021925;28;20061;-70
2022/12/02 09:53:06;;;;;;;7.00;4.43;;;;;;;18.80;40.62;102296.13;5021679;28;20037;-70
2022/12/02 09:55:32;;;;;;;8.38;4.88;;;;;;;18.83;40.47;102302.09;5008340;28;20515;-69
2022/12/02 09:58:10;;;;;;;7.57;5.28;;;;;;;18.84;40.51;102305.59;5023666;28;20025;-72
2022/12/02 10:00:36;;;;;;;7.75;4.38;;;;;;;18.84;40.66;102290.59;5020736;28;20087;-68
2022/12/02 10:03:01;;;;;;;7.97;4.85;;;;;;;18.87;40.53;102297.50;5021566;28;20033;-69
2022/12/02 10:05:28;;;;;;;11.15;5.43;;;;;;;18.91;40.46;102306.06;5026904;28;20135;-68
2022/12/02 10:07:57;;;;;;;9.70;5.25;;;;;;;18.90;40.62;102307.88;5021570;28;20044;-67
2022/12/02 10:10:25;;;;;;;7.50;4.85;;;;;;;18.90;40.29;102288.50;5025768;28;20370;-68
2022/12/02 10:12:52;;;;;;;8.05;5.07;;;;;;;18.94;40.29;102298.78;5007885;28;20180;-68
2022/12/02 10:15:22;;;;;;;11.35;5.43;;;;;;;18.84;40.67;102279.19;5019878;28;20485;-67
2022/12/02 10:17:48;;;;;;;7.85;4.63;;;;;;;18.96;40.17;102298.69;5023770;28;20045;-69
2022/12/02 10:20:18;;;;;;;9.02;5.07;;;;;;;18.96;40.17;102296.06;5004026;28;20025;-70
2022/12/02 10:23:07;;;;;;;8.77;5.00;;;;;;;18.98;39.97;102300.31;5019572;28;20488;-68
2022/12/02 10:25:33;;;;;;;8.45;4.75;;;;;;;18.97;40.22;102292.47;5027805;28;20516;-72
2022/12/02 10:27:59;;;;;;;7.72;4.57;;;;;;;18.99;40.06;102302.03;5024254;28;20034;-67
2022/12/02 10:30:26;;;;;;;8.43;4.40;;;;;;;18.95;40.03;102289.09;5015736;28;20033;-66
2022/12/02 10:33:01;;;;;;;12.60;5.47;;;;;;;18.97;40.07;102295.13;5026154;28;20060;-67
2022/12/02 10:35:32;;;;;;;11.00;4.72;;;;;;;19.00;39.94;102289.66;5016866;28;20046;-74
2022/12/02 10:37:57;;;;;;;9.48;4.95;;;;;;;18.99;39.96;102280.88;5003190;28;20030;-70
2022/12/02 10:40:24;;;;;;;9.02;4.68;;;;;;;19.01;40.12;102288.72;5006075;28;20084;-68
2022/12/02 10:43:09;;;;;;;11.43;5.50;;;;;;;18.99;40.02;102280.00;5012103;28;20041;-71
2022/12/02 10:45:35;;;;;;;9.13;4.90;;;;;;;19.01;39.81;102283.44;4983825;28;20061;-72
2022/12/02 10:48:15;;;;;;;7.80;4.65;;;;;;;18.98;39.73;102276.53;5007278;28;20532;-67
2022/12/02 10:50:40;;;;;;;9.20;4.93;;;;;;;18.97;39.77;102271.34;5003226;28;20335;-68
2022/12/02 10:53:13;;;;;;;8.52;4.85;;;;;;;18.95;39.54;102271.44;5008997;28;20041;-68
2022/12/02 10:55:40;;;;;;;11.48;5.57;;;;;;;18.96;39.92;102267.88;5009142;28;20041;-68
2022/12/02 10:58:09;;;;;;;9.10;5.25;;;;;;;18.92;39.67;102268.97;5016488;28;20033;-69
2022/12/02 11:00:34;;;;;;;7.90;5.20;;;;;;;18.92;39.97;102266.34;5009169;28;20061;-69
2022/12/02 11:03:04;;;;;;;10.45;5.68;;;;;;;18.96;39.70;102267.00;5003803;28;20132;-68
2022/12/02 11:05:32;;;;;;;9.05;4.95;;;;;;;18.94;39.76;102260.97;5013599;28;20036;-70
2022/12/02 11:08:01;;;;;;;10.25;4.97;;;;;;;18.97;39.88;102263.41;4993620;28;20939;-67
2022/12/02 11:10:36;;;;;;;12.27;6.13;;;;;;;18.94;39.63;102256.53;5009425;28;20025;-71
2022/12/02 11:13:12;;;;;;;9.38;5.25;;;;;;;18.93;39.73;102265.41;4999951;28;20053;-68
2022/12/02 11:15:43;;;;;;;10.15;5.30;;;;;;;18.89;39.80;102257.78;5003773;28;20533;-70
2022/12/02 11:18:21;;;;;;;9.73;6.03;;;;;;;18.89;39.71;102258.59;5008483;28;20042;-68
2022/12/02 11:20:51;;;;;;;10.07;5.22;;;;;;;18.88;39.74;102256.06;5008849;28;20044;-70